createdAt,value
2023-03-15T00:00:50.104Z,99358.25
2023-03-15T00:03:55.179Z,99361.69
2023-03-15T00:06:58.395Z,99364.25
2023-03-15T00:10:01.136Z,99355.50
2023-03-15T00:13:03.749Z,99361.56
2023-03-15T00:16:07.052Z,99365.00
2023-03-15T00:19:12.110Z,99360.63
2023-03-15T00:22:15.147Z,99354.50
2023-03-15T00:25:17.986Z,99353.59
2023-03-15T00:28:21.905Z,99361.41
2023-03-15T00:31:25.786Z,99347.44
2023-03-15T00:34:35.972Z,99347.38
2023-03-15T00:37:39.700Z,99349.06
2023-03-15T00:40:46.342Z,99358.53
2023-03-15T00:43:49.620Z,99359.38
2023-03-15T00:46:52.929Z,99363.69
2023-03-15T00:49:55.521Z,99350.59
2023-03-15T00:52:58.739Z,99347.97
2023-03-15T00:56:15.305Z,99349.69
2023-03-15T00:59:18.743Z,99352.31
2023-03-15T01:02:22.318Z,99348.81
2023-03-15T01:05:26.514Z,99354.78
2023-03-15T01:08:31.452Z,99357.31
2023-03-15T01:11:35.730Z,99361.66
2023-03-15T01:14:39.127Z,99371.16
2023-03-15T01:17:43.932Z,99372.91
2023-03-15T01:20:47.659Z,99370.28
2023-03-15T01:23:53.876Z,99372.00
2023-03-15T01:26:59.792Z,99360.69
2023-03-15T01:30:03.356Z,99381.50
2023-03-15T01:33:08.398Z,99377.97
2023-03-15T01:36:12.358Z,99364.88
2023-03-15T01:39:14.860Z,99370.03
2023-03-15T01:42:18.860Z,99365.69
2023-03-15T01:46:09.510Z,99363.09
2023-03-15T01:49:17.716Z,99353.47
2023-03-15T01:52:25.031Z,99353.41
2023-03-15T01:55:28.235Z,99340.28
2023-03-15T01:58:35.516Z,99332.38
2023-03-15T02:01:45.696Z,99333.19
2023-03-15T02:05:11.983Z,99334.03
2023-03-15T02:08:19.139Z,99335.69
2023-03-15T02:11:25.589Z,99326.06
2023-03-15T02:14:29.133Z,99328.59
2023-03-15T02:17:40.182Z,99332.03
2023-03-15T02:20:57.329Z,99345.03
2023-03-15T02:24:24.889Z,99344.16
2023-03-15T02:27:34.567Z,99348.41
2023-03-15T02:30:40.095Z,99345.81
2023-03-15T02:33:49.580Z,99341.41
2023-03-15T02:36:54.305Z,99350.12
2023-03-15T02:39:57.065Z,99347.44
2023-03-15T02:43:07.013Z,99357.84
2023-03-15T02:46:10.751Z,99352.63
2023-03-15T02:49:17.552Z,99359.47
2023-03-15T02:52:22.719Z,99362.00
2023-03-15T02:55:25.646Z,99368.91
2023-03-15T02:58:29.303Z,99356.75
2023-03-15T03:01:32.973Z,99370.56
2023-03-15T03:04:36.142Z,99372.31
2023-03-15T03:07:39.307Z,99366.97
2023-03-15T03:10:42.705Z,99359.19
2023-03-15T03:13:45.918Z,99363.53
2023-03-15T03:16:48.456Z,99355.69
2023-03-15T03:19:53.825Z,99363.53
2023-03-15T03:22:58.526Z,99358.31
2023-03-15T03:26:03.241Z,99376.59
2023-03-15T03:29:06.525Z,99363.59
2023-03-15T03:32:10.322Z,99367.87
2023-03-15T03:35:15.884Z,99373.16
2023-03-15T03:38:20.125Z,99353.19
2023-03-15T03:41:23.641Z,99347.13
2023-03-15T03:44:27.968Z,99347.13
2023-03-15T03:47:32.010Z,99348.81
2023-03-15T03:50:35.207Z,99343.59
2023-03-15T03:53:37.741Z,99348.69
2023-03-15T03:56:40.796Z,99341.81
2023-03-15T03:59:44.303Z,99346.16
2023-03-15T04:02:48.276Z,99354.81
2023-03-15T04:05:52.950Z,99363.56
2023-03-15T04:08:56.312Z,99360.13
2023-03-15T04:12:00.878Z,99363.59
2023-03-15T04:15:04.162Z,99373.97
2023-03-15T04:18:08.334Z,99389.56
2023-03-15T04:21:12.810Z,99386.00
2023-03-15T04:24:17.072Z,99388.56
2023-03-15T04:27:20.185Z,99401.53
2023-03-15T04:30:29.511Z,99394.50
2023-03-15T04:33:35.465Z,99400.69
2023-03-15T04:36:39.485Z,99404.19
2023-03-15T04:39:42.835Z,99407.69
2023-03-15T04:42:49.579Z,99417.19
2023-03-15T04:45:52.857Z,99419.63
2023-03-15T04:48:58.926Z,99425.50
2023-03-15T04:52:07.166Z,99426.66
2023-03-15T04:55:13.628Z,99449.81
2023-03-15T04:58:18.702Z,99452.97
2023-03-15T05:01:28.070Z,99457.09
2023-03-15T05:04:35.182Z,99443.03
2023-03-15T05:07:40.226Z,99441.09
2023-03-15T05:10:43.391Z,99438.47
2023-03-15T05:13:48.163Z,99442.47
2023-03-15T05:16:59.964Z,99442.28
2023-03-15T05:20:15.686Z,99435.94
2023-03-15T05:23:18.921Z,99436.75
2023-03-15T05:26:25.949Z,99435.66
2023-03-15T05:29:29.151Z,99443.38
2023-03-15T05:32:35.258Z,99442.22
2023-03-15T05:35:39.163Z,99438.59
2023-03-15T05:38:48.229Z,99439.25
2023-03-15T05:41:59.963Z,99440.78
2023-03-15T05:45:11.913Z,99449.25
2023-03-15T05:48:16.724Z,99445.84
2023-03-15T05:51:26.232Z,99444.09
2023-03-15T05:54:30.339Z,99449.28
2023-03-15T05:57:34.261Z,99450.06
2023-03-15T06:00:40.122Z,99453.22
2023-03-15T06:03:45.500Z,99448.84
2023-03-15T06:06:55.196Z,99445.91
2023-03-15T06:10:07.000Z,99455.47
2023-03-15T06:13:18.235Z,99458.94
2023-03-15T06:16:23.232Z,99460.47
2023-03-15T06:19:30.627Z,99467.22
2023-03-15T06:22:35.154Z,99468.69
2023-03-15T06:25:47.104Z,99478.88
2023-03-15T06:28:52.469Z,99461.69
2023-03-15T06:32:05.304Z,99465.31
2023-03-15T06:35:16.070Z,99467.97
2023-03-15T06:38:24.459Z,99475.81
2023-03-15T06:41:28.995Z,99484.63
2023-03-15T06:44:35.606Z,99478.59
2023-03-15T06:47:43.871Z,99497.00
2023-03-15T06:50:50.301Z,99500.63
2023-03-15T06:53:55.867Z,99501.50
2023-03-15T06:57:00.092Z,99511.97
2023-03-15T07:00:07.982Z,99498.94
2023-03-15T07:03:12.768Z,99506.88
2023-03-15T07:06:18.147Z,99506.78
2023-03-15T07:09:29.125Z,99522.34
2023-03-15T07:12:33.337Z,99520.53
2023-03-15T07:15:38.270Z,99513.47
2023-03-15T07:18:48.278Z,99512.84
2023-03-15T07:22:00.197Z,99520.66
2023-03-15T07:25:07.501Z,99530.31
2023-03-15T07:28:19.136Z,99532.84
2023-03-15T07:31:26.978Z,99540.62
2023-03-15T07:34:31.228Z,99549.97
2023-03-15T07:37:54.838Z,99558.53
2023-03-15T07:41:07.193Z,99545.53
2023-03-15T07:44:19.168Z,99548.19
2023-03-15T07:47:22.366Z,99542.94
2023-03-15T07:50:28.222Z,99536.09
2023-03-15T07:53:35.948Z,99547.38
2023-03-15T07:56:41.210Z,99539.56
2023-03-15T08:41:15.585Z,99583.81
2023-03-15T09:57:38.517Z,99719.72
2023-03-15T10:01:45.556Z,99719.97
2023-03-15T10:05:19.584Z,99725.38
2023-03-15T10:25:18.671Z,99734.81
2023-03-15T10:32:39.674Z,99743.44
2023-03-15T10:35:48.488Z,99750.41
2023-03-15T10:38:54.370Z,99761.16
2023-03-15T10:42:05.805Z,99764.00
2023-03-15T10:45:28.420Z,99779.81
2023-03-15T11:37:26.533Z,99799.56
2023-03-15T11:40:39.491Z,99801.56
2023-03-15T11:44:18.783Z,99798.19
2023-03-15T11:48:02.329Z,99801.81
2023-03-15T11:51:18.028Z,99802.56
2023-03-15T11:54:35.463Z,99805.94
2023-03-15T11:57:42.814Z,99819.19
2023-03-15T12:00:57.109Z,99816.56
2023-03-15T12:04:33.420Z,99823.41
2023-03-15T12:07:38.668Z,99817.34
2023-03-15T12:10:46.931Z,99825.78
2023-03-15T12:14:04.362Z,99814.50
2023-03-15T12:17:28.763Z,99820.91
2023-03-15T12:20:39.061Z,99826.25
2023-03-15T12:24:06.464Z,99823.50
2023-03-15T12:27:23.429Z,99839.94
2023-03-15T12:30:39.723Z,99827.06
2023-03-15T12:33:53.032Z,99837.03
2023-03-15T12:37:20.427Z,99845.16
2023-03-15T12:40:58.619Z,99837.75
2023-03-15T12:44:25.783Z,99841.34
2023-03-15T12:47:53.430Z,99832.63
2023-03-15T12:51:14.821Z,99832.97
2023-03-15T12:54:28.763Z,99851.16
2023-03-15T12:57:41.579Z,99839.66
2023-03-15T13:00:55.666Z,99841.31
2023-03-15T13:04:06.524Z,99845.09
2023-03-15T13:07:50.981Z,99844.47
2023-03-15T13:11:15.885Z,99852.44
2023-03-15T13:14:55.407Z,99861.88
2023-03-15T13:18:18.679Z,99860.19
2023-03-15T13:21:34.449Z,99871.78
2023-03-15T13:25:00.493Z,99881.16
2023-03-15T13:28:27.544Z,99875.09
2023-03-15T13:31:34.388Z,99875.94
2023-03-15T13:34:51.464Z,99875.97
2023-03-15T13:38:30.847Z,99889.00
2023-03-15T13:41:42.723Z,99888.31
2023-03-15T13:45:14.108Z,99891.84
2023-03-15T13:48:26.453Z,99890.06
2023-03-15T13:51:48.344Z,99894.44
2023-03-15T13:55:06.422Z,99894.37
2023-03-15T13:58:19.654Z,99908.72
2023-03-15T14:01:40.579Z,99912.03
2023-03-15T14:04:59.299Z,99929.81
2023-03-15T14:08:15.561Z,99918.97
2023-03-15T14:11:35.089Z,99910.94
2023-03-15T14:14:57.551Z,99927.78
2023-03-15T14:18:24.330Z,99930.09
2023-03-15T14:21:34.388Z,99938.56
2023-03-15T14:24:56.298Z,99947.13
2023-03-15T14:28:04.435Z,99946.09
2023-03-15T14:31:14.559Z,99959.06
2023-03-15T14:35:00.492Z,99950.13
2023-03-15T14:38:27.875Z,99959.62
2023-03-15T14:41:42.450Z,99954.38
2023-03-15T14:44:56.350Z,99959.31
2023-03-15T14:48:14.921Z,99968.84
2023-03-15T14:51:24.580Z,99971.94
2023-03-15T14:54:33.496Z,99975.44
2023-03-15T14:57:50.510Z,99977.69
2023-03-15T15:01:18.475Z,99988.03
2023-03-15T15:04:24.401Z,99989.56
2023-03-15T15:07:28.965Z,99992.91
2023-03-15T15:10:36.890Z,100005.91
2023-03-15T15:13:49.304Z,100009.97
2023-03-15T15:17:08.446Z,100016.84
2023-03-15T15:20:19.586Z,100022.03
2023-03-15T15:23:28.835Z,100029.06
2023-03-15T15:26:56.336Z,100023.53
2023-03-15T15:30:08.376Z,100040.25
2023-03-15T15:33:24.613Z,100037.34
2023-03-15T15:36:43.516Z,100039.00
2023-03-15T15:39:50.080Z,100055.19
2023-03-15T15:42:57.557Z,100051.31
2023-03-15T15:46:17.413Z,100063.47
2023-03-15T15:49:23.485Z,100068.41
2023-03-15T15:52:26.937Z,100073.56
2023-03-15T15:55:34.461Z,100085.66
2023-03-15T15:58:58.293Z,100089.97
2023-03-15T16:02:07.499Z,100091.69
2023-03-15T16:05:17.693Z,100097.72
2023-03-15T16:08:30.337Z,100094.78
2023-03-15T16:11:52.006Z,100106.94
2023-03-15T16:15:21.359Z,100105.06
2023-03-15T16:18:38.287Z,100117.03
2023-03-15T16:21:55.516Z,100118.28
2023-03-15T16:25:36.759Z,100121.63
2023-03-15T16:28:39.925Z,100126.59
2023-03-15T16:31:48.885Z,100128.84
2023-03-15T16:34:55.460Z,100131.31
2023-03-15T16:38:08.417Z,100130.31
2023-03-15T16:41:23.168Z,100137.81
2023-03-15T16:44:40.321Z,100149.72
2023-03-15T16:47:55.245Z,100149.41
2023-03-15T16:51:14.922Z,100157.91
2023-03-15T16:54:41.364Z,100156.78
2023-03-15T16:57:56.523Z,100168.69
2023-03-15T17:01:14.465Z,100176.22
2023-03-15T17:04:32.377Z,100183.63
2023-03-15T17:07:43.873Z,100193.19
2023-03-15T17:11:05.367Z,100196.47
2023-03-15T17:14:31.820Z,100202.34
2023-03-15T17:17:38.376Z,100198.62
2023-03-15T17:21:01.757Z,100200.94
2023-03-15T17:24:06.529Z,100198.03
2023-03-15T17:27:48.345Z,100216.06
2023-03-15T17:31:23.580Z,100218.38
2023-03-15T17:34:34.057Z,100223.50
2023-03-15T17:37:49.413Z,100230.81
2023-03-15T17:41:10.387Z,100246.09
2023-03-15T17:44:25.436Z,100256.81
2023-03-15T17:47:34.406Z,100252.16
2023-03-15T17:50:57.327Z,100262.19
2023-03-15T17:54:03.617Z,100272.25
2023-03-15T17:57:08.713Z,100286.84
2023-03-15T18:00:29.494Z,100291.75
2023-03-15T18:03:35.473Z,100300.09
2023-03-15T18:06:44.557Z,100306.81
2023-03-15T18:10:00.433Z,100312.53
2023-03-15T18:13:23.499Z,100309.97
2023-03-15T18:16:35.544Z,100312.41
2023-03-15T18:19:41.161Z,100317.44
2023-03-15T18:23:00.890Z,100322.31
2023-03-15T18:26:13.422Z,100328.44
2023-03-15T18:29:37.833Z,100327.41
2023-03-15T18:32:56.945Z,100327.63
2023-03-15T18:36:09.651Z,100329.25
2023-03-15T18:39:22.382Z,100329.25
2023-03-15T18:42:27.285Z,100335.34
2023-03-15T18:45:42.851Z,100338.87
2023-03-15T18:49:10.497Z,100341.53
2023-03-15T18:52:29.325Z,100351.91
2023-03-15T18:55:46.940Z,100344.81
2023-03-15T18:58:59.424Z,100349.91
2023-03-15T19:02:15.614Z,100349.25
2023-03-15T19:05:21.024Z,100349.16
2023-03-15T19:08:26.694Z,100356.78
2023-03-15T19:11:33.493Z,100363.72
2023-03-15T19:14:47.826Z,100364.78
2023-03-15T19:18:28.486Z,100371.50
2023-03-15T19:21:33.827Z,100371.34
2023-03-15T19:24:39.685Z,100377.34
2023-03-15T19:27:58.579Z,100372.00
2023-03-15T19:31:09.721Z,100390.78
2023-03-15T19:34:16.276Z,100389.59
2023-03-15T19:37:37.363Z,100397.94
2023-03-15T19:40:41.486Z,100390.66
2023-03-15T19:43:46.364Z,100402.50
2023-03-15T19:46:56.429Z,100414.31
2023-03-15T19:50:06.882Z,100417.78
2023-03-15T19:53:25.314Z,100420.19
2023-03-15T19:56:45.854Z,100425.38
2023-03-15T19:59:57.377Z,100425.38
2023-03-15T20:03:13.327Z,100426.91
2023-03-15T20:06:19.645Z,100429.41
2023-03-15T20:09:25.006Z,100435.22
2023-03-15T20:12:29.237Z,100433.59
2023-03-15T20:15:42.449Z,100437.81
2023-03-15T20:18:47.153Z,100438.97
2023-03-15T20:21:50.295Z,100443.94
2023-03-15T20:25:02.704Z,100454.28
2023-03-15T20:28:23.304Z,100456.00
2023-03-15T20:31:36.347Z,100457.97
2023-03-15T20:34:57.297Z,100458.94
2023-03-15T20:38:11.385Z,100466.69
2023-03-15T20:41:20.189Z,100466.69
2023-03-15T20:44:33.393Z,100465.72
2023-03-15T20:47:37.965Z,100466.59
2023-03-15T20:50:46.650Z,100466.69
2023-03-15T20:54:05.393Z,100471.78
2023-03-15T20:57:16.696Z,100464.09
2023-03-15T21:00:29.210Z,100461.34
2023-03-15T21:03:34.614Z,100468.31
2023-03-15T21:06:52.834Z,100480.34
2023-03-15T21:09:57.531Z,100476.00
2023-03-15T21:13:10.078Z,100480.97
2023-03-15T21:16:14.615Z,100487.84
2023-03-15T21:19:18.804Z,100489.44
2023-03-15T21:22:36.245Z,100484.44
2023-03-15T21:25:39.607Z,100480.28
2023-03-15T21:28:51.290Z,100481.84
2023-03-15T21:31:54.330Z,100480.34
2023-03-15T21:35:02.027Z,100483.75
2023-03-15T21:38:07.376Z,100496.03
2023-03-15T21:41:16.036Z,100486.59
2023-03-15T21:44:18.766Z,100483.34
2023-03-15T21:47:23.074Z,100490.78
2023-03-15T21:50:28.256Z,100488.03
2023-03-15T21:53:34.331Z,100495.59
2023-03-15T21:56:37.362Z,100495.44
2023-03-15T21:59:41.491Z,100495.09
2023-03-15T22:02:44.811Z,100494.37
2023-03-15T22:05:48.829Z,100491.78
2023-03-15T22:08:52.856Z,100491.00
2023-03-15T22:11:56.807Z,100484.19
2023-03-15T22:15:05.620Z,100478.94
2023-03-15T22:18:11.624Z,100486.88
2023-03-15T22:21:18.224Z,100491.22
2023-03-15T22:24:21.314Z,100488.31
2023-03-15T22:27:24.752Z,100490.81
2023-03-15T22:30:28.722Z,100494.47
2023-03-15T22:33:31.909Z,100496.00
2023-03-15T22:36:35.145Z,100489.03
2023-03-15T22:39:38.167Z,100494.31
2023-03-15T22:42:43.382Z,100498.41
2023-03-15T22:45:47.559Z,100501.56
2023-03-15T22:48:50.510Z,100505.69
2023-03-15T22:51:56.392Z,100508.25
2023-03-15T22:54:59.151Z,100513.28
2023-03-15T22:58:03.574Z,100508.91
2023-03-15T23:01:06.889Z,100513.91
2023-03-15T23:04:09.791Z,100512.84
2023-03-15T23:07:15.314Z,100517.03
2023-03-15T23:10:21.708Z,100514.38
2023-03-15T23:13:25.058Z,100515.09
2023-03-15T23:16:27.883Z,100523.50
2023-03-15T23:19:34.411Z,100525.56
2023-03-15T23:22:36.955Z,100523.34
2023-03-15T23:25:40.632Z,100535.00
2023-03-15T23:28:43.645Z,100529.50
2023-03-15T23:31:47.534Z,100536.97
2023-03-15T23:34:51.238Z,100538.22
2023-03-15T23:37:57.243Z,100541.44
2023-03-15T23:41:00.587Z,100546.97
2023-03-15T23:44:03.926Z,100559.44
2023-03-15T23:47:07.528Z,100560.69
2023-03-15T23:50:13.633Z,100554.97
2023-03-15T23:53:16.168Z,100551.44
2023-03-15T23:56:20.429Z,100565.94
2023-03-15T23:59:23.273Z,100570.56
